sensor_id;sensor_type;location;lat;lon;timestamp;P1;durP1;ratioP1;P2;durP2;ratioP2
47669;SDS011;33408;52.062;11.722;2023-02-13T00:02:08;17.30;;;10.60;;
47669;SDS011;33408;52.062;11.722;2023-02-13T00:04:35;17.70;;;11.05;;
47669;SDS011;33408;52.062;11.722;2023-02-13T00:07:01;18.42;;;11.25;;
47669;SDS011;33408;52.062;11.722;2023-02-13T00:09:28;17.65;;;11.15;;
47669;SDS011;33408;52.062;11.722;2023-02-13T00:11:54;18.30;;;11.20;;
47669;SDS011;33408;52.062;11.722;2023-02-13T00:14:21;18.05;;;11.30;;
47669;SDS011;33408;52.062;11.722;2023-02-13T00:16:48;19.10;;;11.40;;
47669;SDS011;33408;52.062;11.722;2023-02-13T00:19:15;19.52;;;11.43;;
47669;SDS011;33408;52.062;11.722;2023-02-13T00:21:42;18.80;;;11.75;;
47669;SDS011;33408;52.062;11.722;2023-02-13T00:24:09;20.17;;;11.93;;
47669;SDS011;33408;52.062;11.722;2023-02-13T00:26:35;18.77;;;11.38;;
47669;SDS011;33408;52.062;11.722;2023-02-13T00:29:03;21.17;;;12.45;;
47669;SDS011;33408;52.062;11.722;2023-02-13T00:31:30;19.33;;;12.63;;
47669;SDS011;33408;52.062;11.722;2023-02-13T00:33:57;18.77;;;11.98;;
47669;SDS011;33408;52.062;11.722;2023-02-13T00:36:25;17.98;;;10.93;;
47669;SDS011;33408;52.062;11.722;2023-02-13T00:38:52;18.85;;;11.15;;
47669;SDS011;33408;52.062;11.722;2023-02-13T00:41:19;16.95;;;10.45;;
47669;SDS011;33408;52.062;11.722;2023-02-13T00:43:47;17.58;;;10.50;;
47669;SDS011;33408;52.062;11.722;2023-02-13T00:46:14;17.60;;;10.27;;
47669;SDS011;33408;52.062;11.722;2023-02-13T00:48:41;20.90;;;11.35;;
47669;SDS011;33408;52.062;11.722;2023-02-13T00:51:09;20.98;;;11.43;;
47669;SDS011;33408;52.062;11.722;2023-02-13T00:53:37;18.30;;;10.52;;
47669;SDS011;33408;52.062;11.722;2023-02-13T00:56:05;20.52;;;10.85;;
47669;SDS011;33408;52.062;11.722;2023-02-13T00:58:32;18.75;;;11.07;;
47669;SDS011;33408;52.062;11.722;2023-02-13T01:00:59;17.85;;;10.10;;
47669;SDS011;33408;52.062;11.722;2023-02-13T01:03:25;17.48;;;10.40;;
47669;SDS011;33408;52.062;11.722;2023-02-13T01:05:52;19.70;;;10.73;;
47669;SDS011;33408;52.062;11.722;2023-02-13T01:08:20;17.20;;;10.98;;
47669;SDS011;33408;52.062;11.722;2023-02-13T01:10:48;17.67;;;9.65;;
47669;SDS011;33408;52.062;11.722;2023-02-13T01:13:16;17.00;;;10.73;;
47669;SDS011;33408;52.062;11.722;2023-02-13T01:15:43;17.80;;;9.73;;
47669;SDS011;33408;52.062;11.722;2023-02-13T01:18:11;14.85;;;8.60;;
47669;SDS011;33408;52.062;11.722;2023-02-13T01:20:38;17.70;;;9.70;;
47669;SDS011;33408;52.062;11.722;2023-02-13T01:23:05;21.20;;;12.27;;
47669;SDS011;33408;52.062;11.722;2023-02-13T01:25:32;18.63;;;10.50;;
47669;SDS011;33408;52.062;11.722;2023-02-13T01:28:00;20.83;;;12.02;;
47669;SDS011;33408;52.062;11.722;2023-02-13T01:30:26;21.63;;;11.77;;
47669;SDS011;33408;52.062;11.722;2023-02-13T01:32:53;21.33;;;11.57;;
47669;SDS011;33408;52.062;11.722;2023-02-13T01:35:19;20.67;;;12.02;;
47669;SDS011;33408;52.062;11.722;2023-02-13T01:37:46;22.42;;;12.40;;
47669;SDS011;33408;52.062;11.722;2023-02-13T01:40:13;23.60;;;13.90;;
47669;SDS011;33408;52.062;11.722;2023-02-13T01:42:41;19.95;;;12.20;;
47669;SDS011;33408;52.062;11.722;2023-02-13T01:45:17;23.63;;;12.98;;
47669;SDS011;33408;52.062;11.722;2023-02-13T01:47:48;22.73;;;12.43;;
47669;SDS011;33408;52.062;11.722;2023-02-13T01:50:18;23.92;;;14.02;;
47669;SDS011;33408;52.062;11.722;2023-02-13T01:52:50;22.58;;;13.10;;
47669;SDS011;33408;52.062;11.722;2023-02-13T01:55:20;25.83;;;14.02;;
47669;SDS011;33408;52.062;11.722;2023-02-13T01:57:49;23.35;;;13.75;;
47669;SDS011;33408;52.062;11.722;2023-02-13T02:00:21;24.02;;;13.63;;
47669;SDS011;33408;52.062;11.722;2023-02-13T02:02:49;21.55;;;12.85;;
47669;SDS011;33408;52.062;11.722;2023-02-13T02:05:18;24.20;;;14.18;;
47669;SDS011;33408;52.062;11.722;2023-02-13T02:07:49;26.30;;;14.73;;
47669;SDS011;33408;52.062;11.722;2023-02-13T02:10:17;21.38;;;13.45;;
47669;SDS011;33408;52.062;11.722;2023-02-13T02:12:46;23.42;;;12.65;;
47669;SDS011;33408;52.062;11.722;2023-02-13T02:15:17;20.88;;;12.88;;
47669;SDS011;33408;52.062;11.722;2023-02-13T02:17:46;25.58;;;14.32;;
47669;SDS011;33408;52.062;11.722;2023-02-13T02:20:16;22.90;;;14.15;;
47669;SDS011;33408;52.062;11.722;2023-02-13T02:23:00;26.65;;;15.15;;
47669;SDS011;33408;52.062;11.722;2023-02-13T02:25:55;27.13;;;15.02;;
47669;SDS011;33408;52.062;11.722;2023-02-13T02:29:04;25.13;;;15.00;;
47669;SDS011;33408;52.062;11.722;2023-02-13T02:31:58;26.02;;;16.13;;
47669;SDS011;33408;52.062;11.722;2023-02-13T02:34:36;28.60;;;15.15;;
47669;SDS011;33408;52.062;11.722;2023-02-13T02:37:15;25.55;;;15.18;;
47669;SDS011;33408;52.062;11.722;2023-02-13T02:39:54;28.63;;;17.25;;
47669;SDS011;33408;52.062;11.722;2023-02-13T02:42:33;30.02;;;17.27;;
47669;SDS011;33408;52.062;11.722;2023-02-13T02:45:09;29.20;;;17.38;;
47669;SDS011;33408;52.062;11.722;2023-02-13T02:47:43;30.85;;;18.15;;
47669;SDS011;33408;52.062;11.722;2023-02-13T02:50:36;28.95;;;17.58;;
47669;SDS011;33408;52.062;11.722;2023-02-13T02:53:09;32.17;;;18.88;;
47669;SDS011;33408;52.062;11.722;2023-02-13T02:55:45;34.30;;;18.77;;
47669;SDS011;33408;52.062;11.722;2023-02-13T02:58:19;34.38;;;18.60;;
47669;SDS011;33408;52.062;11.722;2023-02-13T03:01:05;31.13;;;18.73;;
47669;SDS011;33408;52.062;11.722;2023-02-13T03:03:56;34.85;;;19.83;;
47669;SDS011;33408;52.062;11.722;2023-02-13T03:06:43;32.90;;;19.60;;
47669;SDS011;33408;52.062;11.722;2023-02-13T03:09:14;33.95;;;19.67;;
47669;SDS011;33408;52.062;11.722;2023-02-13T03:12:03;34.25;;;19.48;;
47669;SDS011;33408;52.062;11.722;2023-02-13T03:14:48;34.42;;;21.70;;
47669;SDS011;33408;52.062;11.722;2023-02-13T03:17:16;35.55;;;20.92;;
47669;SDS011;33408;52.062;11.722;2023-02-13T03:20:11;37.47;;;22.63;;
47669;SDS011;33408;52.062;11.722;2023-02-13T03:23:19;36.70;;;21.67;;
47669;SDS011;33408;52.062;11.722;2023-02-13T03:29:11;36.58;;;22.05;;
47669;SDS011;33408;52.062;11.722;2023-02-13T03:32:03;38.67;;;22.90;;
47669;SDS011;33408;52.062;11.722;2023-02-13T03:34:36;40.03;;;23.48;;
47669;SDS011;33408;52.062;11.722;2023-02-13T03:37:29;39.05;;;23.17;;
47669;SDS011;33408;52.062;11.722;2023-02-13T03:40:19;39.38;;;23.88;;
47669;SDS011;33408;52.062;11.722;2023-02-13T03:42:51;39.97;;;23.25;;
47669;SDS011;33408;52.062;11.722;2023-02-13T03:45:21;39.42;;;23.30;;
47669;SDS011;33408;52.062;11.722;2023-02-13T03:48:09;37.28;;;21.83;;
47669;SDS011;33408;52.062;11.722;2023-02-13T03:51:14;34.33;;;20.80;;
47669;SDS011;33408;52.062;11.722;2023-02-13T03:53:45;36.78;;;20.05;;
47669;SDS011;33408;52.062;11.722;2023-02-13T03:56:16;32.90;;;19.08;;
47669;SDS011;33408;52.062;11.722;2023-02-13T03:59:04;32.63;;;19.85;;
47669;SDS011;33408;52.062;11.722;2023-02-13T04:01:53;32.50;;;18.52;;
47669;SDS011;33408;52.062;11.722;2023-02-13T04:04:28;36.13;;;21.17;;
47669;SDS011;33408;52.062;11.722;2023-02-13T04:07:01;36.53;;;21.45;;
47669;SDS011;33408;52.062;11.722;2023-02-13T04:09:32;41.15;;;23.58;;
47669;SDS011;33408;52.062;11.722;2023-02-13T04:12:05;31.23;;;19.83;;
47669;SDS011;33408;52.062;11.722;2023-02-13T04:14:40;32.60;;;17.75;;
47669;SDS011;33408;52.062;11.722;2023-02-13T04:17:15;27.58;;;16.83;;
47669;SDS011;33408;52.062;11.722;2023-02-13T04:19:46;30.67;;;17.27;;
47669;SDS011;33408;52.062;11.722;2023-02-13T04:22:13;27.80;;;14.18;;
47669;SDS011;33408;52.062;11.722;2023-02-13T04:24:41;25.77;;;14.07;;
47669;SDS011;33408;52.062;11.722;2023-02-13T04:27:09;22.20;;;12.63;;
47669;SDS011;33408;52.062;11.722;2023-02-13T04:29:38;19.45;;;12.00;;
47669;SDS011;33408;52.062;11.722;2023-02-13T04:32:04;20.05;;;11.80;;
47669;SDS011;33408;52.062;11.722;2023-02-13T04:34:31;18.20;;;10.88;;
47669;SDS011;33408;52.062;11.722;2023-02-13T04:36:57;19.13;;;11.65;;
47669;SDS011;33408;52.062;11.722;2023-02-13T04:39:24;18.20;;;10.20;;
47669;SDS011;33408;52.062;11.722;2023-02-13T04:41:52;18.30;;;10.65;;
47669;SDS011;33408;52.062;11.722;2023-02-13T04:44:19;17.48;;;10.27;;
47669;SDS011;33408;52.062;11.722;2023-02-13T04:46:45;18.15;;;10.55;;
47669;SDS011;33408;52.062;11.722;2023-02-13T04:49:12;15.93;;;9.90;;
47669;SDS011;33408;52.062;11.722;2023-02-13T04:51:38;18.75;;;10.18;;
47669;SDS011;33408;52.062;11.722;2023-02-13T04:54:05;15.82;;;10.18;;
47669;SDS011;33408;52.062;11.722;2023-02-13T04:56:32;16.85;;;10.27;;
47669;SDS011;33408;52.062;11.722;2023-02-13T04:59:00;20.85;;;10.52;;
47669;SDS011;33408;52.062;11.722;2023-02-13T05:01:26;17.23;;;9.90;;
47669;SDS011;33408;52.062;11.722;2023-02-13T05:03:53;17.88;;;10.90;;
47669;SDS011;33408;52.062;11.722;2023-02-13T05:06:19;16.83;;;10.05;;
47669;SDS011;33408;52.062;11.722;2023-02-13T05:08:46;17.80;;;9.68;;
47669;SDS011;33408;52.062;11.722;2023-02-13T05:11:12;15.68;;;9.13;;
47669;SDS011;33408;52.062;11.722;2023-02-13T05:13:39;16.38;;;9.38;;
47669;SDS011;33408;52.062;11.722;2023-02-13T05:16:07;18.40;;;10.43;;
47669;SDS011;33408;52.062;11.722;2023-02-13T05:18:33;17.60;;;10.65;;
47669;SDS011;33408;52.062;11.722;2023-02-13T05:21:00;16.10;;;9.23;;
47669;SDS011;33408;52.062;11.722;2023-02-13T05:23:44;17.92;;;10.15;;
47669;SDS011;33408;52.062;11.722;2023-02-13T05:26:10;19.35;;;10.80;;
47669;SDS011;33408;52.062;11.722;2023-02-13T05:28:37;16.30;;;10.25;;
47669;SDS011;33408;52.062;11.722;2023-02-13T05:31:21;16.75;;;10.50;;
47669;SDS011;33408;52.062;11.722;2023-02-13T05:33:48;17.80;;;10.40;;
47669;SDS011;33408;52.062;11.722;2023-02-13T05:36:15;18.75;;;10.38;;
47669;SDS011;33408;52.062;11.722;2023-02-13T05:38:41;17.80;;;10.55;;
47669;SDS011;33408;52.062;11.722;2023-02-13T05:41:08;19.83;;;11.13;;
47669;SDS011;33408;52.062;11.722;2023-02-13T05:43:37;18.08;;;10.43;;
47669;SDS011;33408;52.062;11.722;2023-02-13T05:46:04;17.83;;;10.80;;
47669;SDS011;33408;52.062;11.722;2023-02-13T05:48:34;17.73;;;9.77;;
47669;SDS011;33408;52.062;11.722;2023-02-13T05:51:01;20.30;;;11.18;;
47669;SDS011;33408;52.062;11.722;2023-02-13T05:53:28;17.23;;;9.73;;
47669;SDS011;33408;52.062;11.722;2023-02-13T05:55:55;16.10;;;9.57;;
47669;SDS011;33408;52.062;11.722;2023-02-13T05:58:21;15.50;;;9.88;;
47669;SDS011;33408;52.062;11.722;2023-02-13T06:00:48;16.95;;;9.55;;
47669;SDS011;33408;52.062;11.722;2023-02-13T06:03:14;19.08;;;10.57;;
47669;SDS011;33408;52.062;11.722;2023-02-13T06:05:42;17.58;;;9.82;;
47669;SDS011;33408;52.062;11.722;2023-02-13T06:08:09;19.25;;;9.95;;
47669;SDS011;33408;52.062;11.722;2023-02-13T06:10:36;18.80;;;9.43;;
47669;SDS011;33408;52.062;11.722;2023-02-13T06:13:02;16.90;;;10.35;;
47669;SDS011;33408;52.062;11.722;2023-02-13T06:15:29;17.08;;;9.38;;
47669;SDS011;33408;52.062;11.722;2023-02-13T06:17:55;17.48;;;11.25;;
47669;SDS011;33408;52.062;11.722;2023-02-13T06:20:22;19.23;;;10.18;;
47669;SDS011;33408;52.062;11.722;2023-02-13T06:22:50;17.52;;;10.50;;
47669;SDS011;33408;52.062;11.722;2023-02-13T06:25:17;16.38;;;9.98;;
47669;SDS011;33408;52.062;11.722;2023-02-13T06:27:44;16.77;;;9.85;;
47669;SDS011;33408;52.062;11.722;2023-02-13T06:30:12;15.63;;;10.02;;
47669;SDS011;33408;52.062;11.722;2023-02-13T06:32:39;18.23;;;9.95;;
47669;SDS011;33408;52.062;11.722;2023-02-13T06:35:06;17.05;;;10.05;;
47669;SDS011;33408;52.062;11.722;2023-02-13T06:37:33;15.18;;;9.52;;
47669;SDS011;33408;52.062;11.722;2023-02-13T06:40:02;16.35;;;9.55;;
47669;SDS011;33408;52.062;11.722;2023-02-13T06:42:29;17.42;;;10.27;;
47669;SDS011;33408;52.062;11.722;2023-02-13T06:44:56;18.35;;;9.52;;
47669;SDS011;33408;52.062;11.722;2023-02-13T06:47:22;18.50;;;9.73;;
47669;SDS011;33408;52.062;11.722;2023-02-13T06:49:49;19.00;;;11.02;;
47669;SDS011;33408;52.062;11.722;2023-02-13T06:52:15;22.08;;;11.27;;
47669;SDS011;33408;52.062;11.722;2023-02-13T06:54:42;19.02;;;9.05;;
47669;SDS011;33408;52.062;11.722;2023-02-13T06:57:10;16.15;;;9.60;;
47669;SDS011;33408;52.062;11.722;2023-02-13T06:59:36;13.75;;;8.63;;
47669;SDS011;33408;52.062;11.722;2023-02-13T07:02:03;16.38;;;8.80;;
47669;SDS011;33408;52.062;11.722;2023-02-13T07:04:30;16.70;;;9.48;;
47669;SDS011;33408;52.062;11.722;2023-02-13T07:06:56;16.52;;;9.13;;
47669;SDS011;33408;52.062;11.722;2023-02-13T07:09:23;19.10;;;9.00;;
47669;SDS011;33408;52.062;11.722;2023-02-13T07:11:50;16.65;;;8.85;;
47669;SDS011;33408;52.062;11.722;2023-02-13T07:14:18;17.08;;;8.52;;
47669;SDS011;33408;52.062;11.722;2023-02-13T07:16:44;15.85;;;8.52;;
47669;SDS011;33408;52.062;11.722;2023-02-13T07:19:11;15.10;;;9.32;;
47669;SDS011;33408;52.062;11.722;2023-02-13T07:21:37;18.40;;;9.18;;
47669;SDS011;33408;52.062;11.722;2023-02-13T07:24:04;15.48;;;8.27;;
47669;SDS011;33408;52.062;11.722;2023-02-13T07:26:31;14.32;;;8.02;;
47669;SDS011;33408;52.062;11.722;2023-02-13T07:28:57;17.13;;;9.05;;
47669;SDS011;33408;52.062;11.722;2023-02-13T07:31:31;18.08;;;8.57;;
47669;SDS011;33408;52.062;11.722;2023-02-13T07:33:58;15.25;;;8.15;;
47669;SDS011;33408;52.062;11.722;2023-02-13T07:36:24;16.15;;;9.00;;
47669;SDS011;33408;52.062;11.722;2023-02-13T07:38:51;17.45;;;10.07;;
47669;SDS011;33408;52.062;11.722;2023-02-13T07:41:18;19.27;;;10.38;;
47669;SDS011;33408;52.062;11.722;2023-02-13T07:43:45;15.50;;;8.85;;
47669;SDS011;33408;52.062;11.722;2023-02-13T07:46:12;15.80;;;9.30;;
47669;SDS011;33408;52.062;11.722;2023-02-13T07:48:40;15.48;;;7.95;;
47669;SDS011;33408;52.062;11.722;2023-02-13T07:51:06;15.15;;;7.85;;
47669;SDS011;33408;52.062;11.722;2023-02-13T07:53:33;13.93;;;7.75;;
47669;SDS011;33408;52.062;11.722;2023-02-13T07:56:03;16.40;;;7.32;;
47669;SDS011;33408;52.062;11.722;2023-02-13T07:58:30;16.75;;;8.15;;
47669;SDS011;33408;52.062;11.722;2023-02-13T08:00:57;14.77;;;8.23;;
47669;SDS011;33408;52.062;11.722;2023-02-13T08:03:23;16.58;;;8.35;;
47669;SDS011;33408;52.062;11.722;2023-02-13T08:05:51;17.15;;;8.18;;
47669;SDS011;33408;52.062;11.722;2023-02-13T08:08:18;16.45;;;7.88;;
47669;SDS011;33408;52.062;11.722;2023-02-13T08:10:44;16.58;;;8.45;;
47669;SDS011;33408;52.062;11.722;2023-02-13T08:13:28;14.95;;;8.15;;
47669;SDS011;33408;52.062;11.722;2023-02-13T08:15:55;16.67;;;8.38;;
47669;SDS011;33408;52.062;11.722;2023-02-13T08:18:21;15.65;;;8.00;;
47669;SDS011;33408;52.062;11.722;2023-02-13T08:20:48;17.13;;;8.82;;
47669;SDS011;33408;52.062;11.722;2023-02-13T08:23:16;14.15;;;7.68;;
47669;SDS011;33408;52.062;11.722;2023-02-13T08:25:42;15.65;;;7.55;;
47669;SDS011;33408;52.062;11.722;2023-02-13T08:28:09;14.63;;;6.45;;
47669;SDS011;33408;52.062;11.722;2023-02-13T08:30:36;14.43;;;7.45;;
47669;SDS011;33408;52.062;11.722;2023-02-13T08:33:02;14.90;;;7.20;;
47669;SDS011;33408;52.062;11.722;2023-02-13T08:35:29;13.43;;;7.32;;
47669;SDS011;33408;52.062;11.722;2023-02-13T08:37:56;13.88;;;7.05;;
47669;SDS011;33408;52.062;11.722;2023-02-13T08:40:27;15.73;;;6.75;;
47669;SDS011;33408;52.062;11.722;2023-02-13T08:42:57;13.25;;;6.85;;
47669;SDS011;33408;52.062;11.722;2023-02-13T08:45:25;14.30;;;7.55;;
47669;SDS011;33408;52.062;11.722;2023-02-13T08:47:54;11.77;;;6.20;;
47669;SDS011;33408;52.062;11.722;2023-02-13T08:50:21;12.38;;;6.50;;
47669;SDS011;33408;52.062;11.722;2023-02-13T08:52:48;11.23;;;6.70;;
47669;SDS011;33408;52.062;11.722;2023-02-13T08:55:14;13.15;;;6.47;;
47669;SDS011;33408;52.062;11.722;2023-02-13T08:57:42;13.23;;;6.05;;
47669;SDS011;33408;52.062;11.722;2023-02-13T09:00:09;12.88;;;6.60;;
47669;SDS011;33408;52.062;11.722;2023-02-13T09:02:36;11.88;;;5.72;;
47669;SDS011;33408;52.062;11.722;2023-02-13T09:05:03;12.80;;;6.78;;
47669;SDS011;33408;52.062;11.722;2023-02-13T09:07:30;12.18;;;6.25;;
47669;SDS011;33408;52.062;11.722;2023-02-13T09:09:56;12.75;;;6.35;;
47669;SDS011;33408;52.062;11.722;2023-02-13T09:12:23;11.23;;;5.28;;
47669;SDS011;33408;52.062;11.722;2023-02-13T09:14:51;11.18;;;5.78;;
47669;SDS011;33408;52.062;11.722;2023-02-13T09:17:17;11.05;;;5.82;;
47669;SDS011;33408;52.062;11.722;2023-02-13T09:19:44;10.68;;;5.47;;
47669;SDS011;33408;52.062;11.722;2023-02-13T09:22:11;11.90;;;5.50;;
47669;SDS011;33408;52.062;11.722;2023-02-13T09:24:39;11.55;;;5.25;;
47669;SDS011;33408;52.062;11.722;2023-02-13T09:27:06;8.82;;;4.70;;
47669;SDS011;33408;52.062;11.722;2023-02-13T09:29:33;10.77;;;5.28;;
47669;SDS011;33408;52.062;11.722;2023-02-13T09:32:00;13.38;;;5.22;;
47669;SDS011;33408;52.062;11.722;2023-02-13T09:34:27;9.55;;;4.65;;
47669;SDS011;33408;52.062;11.722;2023-02-13T09:36:54;10.15;;;4.53;;
47669;SDS011;33408;52.062;11.722;2023-02-13T09:39:20;9.63;;;4.90;;
47669;SDS011;33408;52.062;11.722;2023-02-13T09:41:47;10.05;;;5.07;;
47669;SDS011;33408;52.062;11.722;2023-02-13T09:44:17;8.85;;;4.63;;
47669;SDS011;33408;52.062;11.722;2023-02-13T09:47:05;10.18;;;4.60;;
47669;SDS011;33408;52.062;11.722;2023-02-13T09:49:39;8.93;;;4.60;;
47669;SDS011;33408;52.062;11.722;2023-02-13T09:52:09;9.77;;;4.53;;
47669;SDS011;33408;52.062;11.722;2023-02-13T09:54:36;8.48;;;4.15;;
47669;SDS011;33408;52.062;11.722;2023-02-13T09:57:04;10.07;;;4.85;;
47669;SDS011;33408;52.062;11.722;2023-02-13T09:59:38;8.95;;;4.13;;
47669;SDS011;33408;52.062;11.722;2023-02-13T10:02:24;11.30;;;4.40;;
47669;SDS011;33408;52.062;11.722;2023-02-13T10:05:05;9.20;;;4.05;;
47669;SDS011;33408;52.062;11.722;2023-02-13T10:07:43;9.38;;;4.70;;
47669;SDS011;33408;52.062;11.722;2023-02-13T10:10:20;9.02;;;4.22;;
47669;SDS011;33408;52.062;11.722;2023-02-13T10:12:58;9.60;;;4.30;;
47669;SDS011;33408;52.062;11.722;2023-02-13T10:15:40;8.45;;;4.28;;
47669;SDS011;33408;52.062;11.722;2023-02-13T10:18:15;10.80;;;4.47;;
47669;SDS011;33408;52.062;11.722;2023-02-13T10:20:44;9.18;;;4.82;;
47669;SDS011;33408;52.062;11.722;2023-02-13T10:23:16;9.10;;;4.05;;
47669;SDS011;33408;52.062;11.722;2023-02-13T10:25:48;8.18;;;4.25;;
47669;SDS011;33408;52.062;11.722;2023-02-13T10:28:23;8.55;;;4.20;;
47669;SDS011;33408;52.062;11.722;2023-02-13T10:30:57;7.90;;;4.18;;
47669;SDS011;33408;52.062;11.722;2023-02-13T10:33:30;7.70;;;4.35;;
47669;SDS011;33408;52.062;11.722;2023-02-13T10:36:03;7.68;;;4.10;;
47669;SDS011;33408;52.062;11.722;2023-02-13T10:38:38;7.65;;;4.22;;
47669;SDS011;33408;52.062;11.722;2023-02-13T10:41:15;8.82;;;4.57;;
47669;SDS011;33408;52.062;11.722;2023-02-13T10:43:50;8.73;;;4.60;;
47669;SDS011;33408;52.062;11.722;2023-02-13T10:46:28;8.73;;;4.82;;
47669;SDS011;33408;52.062;11.722;2023-02-13T10:49:06;8.95;;;4.57;;
47669;SDS011;33408;52.062;11.722;2023-02-13T10:51:47;10.95;;;4.63;;
47669;SDS011;33408;52.062;11.722;2023-02-13T10:54:23;8.13;;;3.70;;
47669;SDS011;33408;52.062;11.722;2023-02-13T10:57:04;8.10;;;3.50;;
47669;SDS011;33408;52.062;11.722;2023-02-13T10:59:43;9.23;;;4.40;;
47669;SDS011;33408;52.062;11.722;2023-02-13T11:02:21;8.52;;;4.03;;
47669;SDS011;33408;52.062;11.722;2023-02-13T11:04:52;9.90;;;4.05;;
47669;SDS011;33408;52.062;11.722;2023-02-13T11:07:24;8.35;;;4.13;;
47669;SDS011;33408;52.062;11.722;2023-02-13T11:09:53;8.38;;;4.68;;
47669;SDS011;33408;52.062;11.722;2023-02-13T11:12:25;9.48;;;4.03;;
47669;SDS011;33408;52.062;11.722;2023-02-13T11:14:55;11.57;;;4.15;;
47669;SDS011;33408;52.062;11.722;2023-02-13T11:17:22;7.63;;;4.13;;
47669;SDS011;33408;52.062;11.722;2023-02-13T11:19:52;7.68;;;3.95;;
47669;SDS011;33408;52.062;11.722;2023-02-13T11:22:27;9.02;;;4.95;;
47669;SDS011;33408;52.062;11.722;2023-02-13T11:24:58;10.02;;;4.40;;
47669;SDS011;33408;52.062;11.722;2023-02-13T11:27:29;7.65;;;3.95;;
47669;SDS011;33408;52.062;11.722;2023-02-13T11:29:59;8.40;;;4.05;;
47669;SDS011;33408;52.062;11.722;2023-02-13T11:32:29;8.00;;;3.97;;
47669;SDS011;33408;52.062;11.722;2023-02-13T11:34:58;8.18;;;4.05;;
47669;SDS011;33408;52.062;11.722;2023-02-13T11:37:55;8.70;;;4.10;;
47669;SDS011;33408;52.062;11.722;2023-02-13T11:40:37;8.55;;;4.53;;
47669;SDS011;33408;52.062;11.722;2023-02-13T11:43:05;8.63;;;4.07;;
47669;SDS011;33408;52.062;11.722;2023-02-13T11:45:33;9.20;;;4.35;;
47669;SDS011;33408;52.062;11.722;2023-02-13T11:48:00;8.02;;;3.45;;
47669;SDS011;33408;52.062;11.722;2023-02-13T11:50:36;8.00;;;4.15;;
47669;SDS011;33408;52.062;11.722;2023-02-13T11:53:03;7.53;;;3.65;;
47669;SDS011;33408;52.062;11.722;2023-02-13T11:55:33;6.85;;;3.72;;
47669;SDS011;33408;52.062;11.722;2023-02-13T11:58:02;8.32;;;3.88;;
47669;SDS011;33408;52.062;11.722;2023-02-13T12:00:31;8.15;;;4.15;;
47669;SDS011;33408;52.062;11.722;2023-02-13T12:03:02;7.53;;;4.20;;
47669;SDS011;33408;52.062;11.722;2023-02-13T12:06:00;7.72;;;3.78;;
47669;SDS011;33408;52.062;11.722;2023-02-13T12:08:30;8.18;;;3.60;;
47669;SDS011;33408;52.062;11.722;2023-02-13T12:10:58;7.82;;;3.92;;
47669;SDS011;33408;52.062;11.722;2023-02-13T12:13:28;7.97;;;3.47;;
47669;SDS011;33408;52.062;11.722;2023-02-13T12:15:58;6.65;;;3.40;;
47669;SDS011;33408;52.062;11.722;2023-02-13T12:18:28;7.68;;;4.32;;
47669;SDS011;33408;52.062;11.722;2023-02-13T12:21:02;8.48;;;4.47;;
47669;SDS011;33408;52.062;11.722;2023-02-13T12:23:37;7.68;;;3.53;;
47669;SDS011;33408;52.062;11.722;2023-02-13T12:26:17;8.27;;;3.80;;
47669;SDS011;33408;52.062;11.722;2023-02-13T12:29:09;8.60;;;3.78;;
47669;SDS011;33408;52.062;11.722;2023-02-13T12:31:51;8.82;;;4.20;;
47669;SDS011;33408;52.062;11.722;2023-02-13T12:37:41;9.48;;;4.65;;
47669;SDS011;33408;52.062;11.722;2023-02-13T12:40:22;6.65;;;3.33;;
47669;SDS011;33408;52.062;11.722;2023-02-13T12:43:06;8.32;;;4.47;;
47669;SDS011;33408;52.062;11.722;2023-02-13T12:45:45;8.88;;;4.55;;
47669;SDS011;33408;52.062;11.722;2023-02-13T12:48:27;8.32;;;4.35;;
47669;SDS011;33408;52.062;11.722;2023-02-13T12:51:09;8.57;;;5.03;;
47669;SDS011;33408;52.062;11.722;2023-02-13T12:53:53;9.25;;;5.28;;
47669;SDS011;33408;52.062;11.722;2023-02-13T12:56:37;9.48;;;5.47;;
47669;SDS011;33408;52.062;11.722;2023-02-13T12:59:14;11.95;;;4.85;;
47669;SDS011;33408;52.062;11.722;2023-02-13T13:01:57;8.57;;;4.88;;
47669;SDS011;33408;52.062;11.722;2023-02-13T13:04:51;8.20;;;4.78;;
47669;SDS011;33408;52.062;11.722;2023-02-13T13:07:36;9.27;;;5.00;;
47669;SDS011;33408;52.062;11.722;2023-02-13T13:10:22;9.52;;;5.80;;
47669;SDS011;33408;52.062;11.722;2023-02-13T13:12:58;9.98;;;5.95;;
47669;SDS011;33408;52.062;11.722;2023-02-13T13:15:38;9.30;;;5.60;;
47669;SDS011;33408;52.062;11.722;2023-02-13T13:18:16;10.52;;;5.63;;
47669;SDS011;33408;52.062;11.722;2023-02-13T13:20:57;10.68;;;5.82;;
47669;SDS011;33408;52.062;11.722;2023-02-13T13:23:34;10.48;;;6.03;;
47669;SDS011;33408;52.062;11.722;2023-02-13T13:28:40;10.40;;;6.70;;
47669;SDS011;33408;52.062;11.722;2023-02-13T13:31:09;12.80;;;7.82;;
47669;SDS011;33408;52.062;11.722;2023-02-13T13:33:38;12.38;;;7.40;;
47669;SDS011;33408;52.062;11.722;2023-02-13T13:36:08;11.30;;;6.70;;
47669;SDS011;33408;52.062;11.722;2023-02-13T13:38:46;13.32;;;6.45;;
47669;SDS011;33408;52.062;11.722;2023-02-13T13:41:25;11.32;;;6.57;;
47669;SDS011;33408;52.062;11.722;2023-02-13T13:44:09;11.20;;;6.70;;
47669;SDS011;33408;52.062;11.722;2023-02-13T13:46:50;11.68;;;7.53;;
47669;SDS011;33408;52.062;11.722;2023-02-13T13:49:33;10.75;;;6.75;;
47669;SDS011;33408;52.062;11.722;2023-02-13T13:52:09;15.40;;;8.05;;
47669;SDS011;33408;52.062;11.722;2023-02-13T13:54:44;10.88;;;6.57;;
47669;SDS011;33408;52.062;11.722;2023-02-13T13:57:16;12.45;;;7.57;;
47669;SDS011;33408;52.062;11.722;2023-02-13T14:02:49;11.85;;;7.15;;
47669;SDS011;33408;52.062;11.722;2023-02-13T14:05:55;13.20;;;9.35;;
47669;SDS011;33408;52.062;11.722;2023-02-13T14:11:24;12.40;;;8.43;;
47669;SDS011;33408;52.062;11.722;2023-02-13T14:13:55;13.02;;;8.80;;
47669;SDS011;33408;52.062;11.722;2023-02-13T14:16:38;13.02;;;9.40;;
47669;SDS011;33408;52.062;11.722;2023-02-13T14:19:21;12.02;;;8.52;;
47669;SDS011;33408;52.062;11.722;2023-02-13T14:21:49;12.65;;;8.50;;
47669;SDS011;33408;52.062;11.722;2023-02-13T14:24:17;12.77;;;8.93;;
47669;SDS011;33408;52.062;11.722;2023-02-13T14:26:49;15.63;;;8.80;;
47669;SDS011;33408;52.062;11.722;2023-02-13T14:29:26;17.63;;;11.90;;
47669;SDS011;33408;52.062;11.722;2023-02-13T14:32:03;15.05;;;9.98;;
47669;SDS011;33408;52.062;11.722;2023-02-13T14:34:42;14.02;;;10.48;;
47669;SDS011;33408;52.062;11.722;2023-02-13T14:37:18;14.52;;;10.00;;
47669;SDS011;33408;52.062;11.722;2023-02-13T14:40:26;13.43;;;9.82;;
47669;SDS011;33408;52.062;11.722;2023-02-13T14:42:58;14.63;;;10.82;;
47669;SDS011;33408;52.062;11.722;2023-02-13T14:45:30;11.60;;;9.32;;
47669;SDS011;33408;52.062;11.722;2023-02-13T14:48:01;12.88;;;9.57;;
47669;SDS011;33408;52.062;11.722;2023-02-13T14:50:35;11.43;;;8.93;;
47669;SDS011;33408;52.062;11.722;2023-02-13T14:53:14;13.80;;;9.63;;
47669;SDS011;33408;52.062;11.722;2023-02-13T14:55:45;14.55;;;10.70;;
47669;SDS011;33408;52.062;11.722;2023-02-13T14:58:24;13.90;;;10.38;;
47669;SDS011;33408;52.062;11.722;2023-02-13T15:00:56;14.70;;;10.82;;
47669;SDS011;33408;52.062;11.722;2023-02-13T15:03:27;15.23;;;10.93;;